sensor_id;sensor_type;location;lat;lon;timestamp;P1;durP1;ratioP1;P2;durP2;ratioP2
31978;SDS011;18502;43.574;1.276;2023-12-22T00:00:47;30.52;;;5.70;;
31978;SDS011;18502;43.574;1.276;2023-12-22T00:03:14;45.05;;;7.47;;
31978;SDS011;18502;43.574;1.276;2023-12-22T00:05:40;51.10;;;7.18;;
31978;SDS011;18502;43.574;1.276;2023-12-22T00:08:06;46.60;;;6.50;;
31978;SDS011;18502;43.574;1.276;2023-12-22T00:10:31;38.53;;;7.15;;
31978;SDS011;18502;43.574;1.276;2023-12-22T00:12:57;43.95;;;6.68;;
31978;SDS011;18502;43.574;1.276;2023-12-22T00:15:23;40.47;;;6.07;;
31978;SDS011;18502;43.574;1.276;2023-12-22T00:17:48;44.65;;;5.90;;
31978;SDS011;18502;43.574;1.276;2023-12-22T00:20:14;33.70;;;4.97;;
31978;SDS011;18502;43.574;1.276;2023-12-22T00:22:40;38.90;;;5.22;;
31978;SDS011;18502;43.574;1.276;2023-12-22T00:25:05;42.38;;;5.60;;
31978;SDS011;18502;43.574;1.276;2023-12-22T00:27:33;34.95;;;5.10;;
31978;SDS011;18502;43.574;1.276;2023-12-22T00:29:58;43.30;;;6.53;;
31978;SDS011;18502;43.574;1.276;2023-12-22T00:32:24;33.38;;;4.93;;
31978;SDS011;18502;43.574;1.276;2023-12-22T00:34:50;42.28;;;7.03;;
31978;SDS011;18502;43.574;1.276;2023-12-22T00:37:15;42.85;;;6.68;;
31978;SDS011;18502;43.574;1.276;2023-12-22T00:39:41;55.72;;;7.13;;
31978;SDS011;18502;43.574;1.276;2023-12-22T00:42:07;26.25;;;4.97;;
31978;SDS011;18502;43.574;1.276;2023-12-22T00:44:33;46.35;;;5.72;;
31978;SDS011;18502;43.574;1.276;2023-12-22T00:46:58;42.78;;;6.63;;
31978;SDS011;18502;43.574;1.276;2023-12-22T00:49:24;18.85;;;3.00;;
31978;SDS011;18502;43.574;1.276;2023-12-22T00:51:49;30.95;;;4.38;;
31978;SDS011;18502;43.574;1.276;2023-12-22T00:54:15;33.28;;;4.60;;
31978;SDS011;18502;43.574;1.276;2023-12-22T00:56:41;35.72;;;5.80;;
31978;SDS011;18502;43.574;1.276;2023-12-22T00:59:06;33.25;;;5.72;;
31978;SDS011;18502;43.574;1.276;2023-12-22T01:01:32;27.80;;;4.30;;
31978;SDS011;18502;43.574;1.276;2023-12-22T01:03:57;39.92;;;5.68;;
31978;SDS011;18502;43.574;1.276;2023-12-22T01:06:23;38.00;;;6.10;;
31978;SDS011;18502;43.574;1.276;2023-12-22T01:08:49;41.47;;;5.40;;
31978;SDS011;18502;43.574;1.276;2023-12-22T01:11:16;34.22;;;6.75;;
31978;SDS011;18502;43.574;1.276;2023-12-22T01:13:42;38.45;;;5.75;;
31978;SDS011;18502;43.574;1.276;2023-12-22T01:16:08;29.30;;;3.67;;
31978;SDS011;18502;43.574;1.276;2023-12-22T01:18:34;37.15;;;4.63;;
31978;SDS011;18502;43.574;1.276;2023-12-22T01:20:59;29.17;;;3.65;;
31978;SDS011;18502;43.574;1.276;2023-12-22T01:23:25;34.17;;;5.15;;
31978;SDS011;18502;43.574;1.276;2023-12-22T01:25:51;32.63;;;4.15;;
31978;SDS011;18502;43.574;1.276;2023-12-22T01:28:17;26.30;;;3.75;;
31978;SDS011;18502;43.574;1.276;2023-12-22T01:30:42;31.80;;;4.07;;
31978;SDS011;18502;43.574;1.276;2023-12-22T01:33:08;28.92;;;4.47;;
31978;SDS011;18502;43.574;1.276;2023-12-22T01:35:34;18.17;;;3.10;;
31978;SDS011;18502;43.574;1.276;2023-12-22T01:37:59;23.95;;;3.88;;
31978;SDS011;18502;43.574;1.276;2023-12-22T01:40:25;27.92;;;4.50;;
31978;SDS011;18502;43.574;1.276;2023-12-22T01:42:51;28.02;;;3.47;;
31978;SDS011;18502;43.574;1.276;2023-12-22T01:45:17;22.98;;;2.83;;
31978;SDS011;18502;43.574;1.276;2023-12-22T01:47:42;22.50;;;3.40;;
31978;SDS011;18502;43.574;1.276;2023-12-22T01:50:09;27.73;;;3.70;;
31978;SDS011;18502;43.574;1.276;2023-12-22T01:52:37;25.23;;;3.70;;
31978;SDS011;18502;43.574;1.276;2023-12-22T01:55:04;25.45;;;3.33;;
31978;SDS011;18502;43.574;1.276;2023-12-22T01:57:30;25.02;;;3.63;;
31978;SDS011;18502;43.574;1.276;2023-12-22T01:59:56;27.60;;;3.65;;
31978;SDS011;18502;43.574;1.276;2023-12-22T02:02:22;29.08;;;4.45;;
31978;SDS011;18502;43.574;1.276;2023-12-22T02:04:48;23.70;;;3.55;;
31978;SDS011;18502;43.574;1.276;2023-12-22T02:07:14;23.60;;;3.83;;
31978;SDS011;18502;43.574;1.276;2023-12-22T02:09:40;20.77;;;4.72;;
31978;SDS011;18502;43.574;1.276;2023-12-22T02:12:06;21.00;;;2.88;;
31978;SDS011;18502;43.574;1.276;2023-12-22T02:14:32;20.98;;;2.80;;
31978;SDS011;18502;43.574;1.276;2023-12-22T02:17:02;19.65;;;2.35;;
31978;SDS011;18502;43.574;1.276;2023-12-22T02:19:54;15.88;;;2.83;;
31978;SDS011;18502;43.574;1.276;2023-12-22T02:22:21;11.40;;;1.27;;
31978;SDS011;18502;43.574;1.276;2023-12-22T02:24:47;19.52;;;2.75;;
31978;SDS011;18502;43.574;1.276;2023-12-22T02:28:01;12.80;;;2.70;;
31978;SDS011;18502;43.574;1.276;2023-12-22T02:30:14;12.27;;;1.98;;
31978;SDS011;18502;43.574;1.276;2023-12-22T02:32:47;15.68;;;2.40;;
31978;SDS011;18502;43.574;1.276;2023-12-22T02:35:16;17.63;;;2.63;;
31978;SDS011;18502;43.574;1.276;2023-12-22T02:37:46;12.98;;;1.88;;
31978;SDS011;18502;43.574;1.276;2023-12-22T02:40:12;11.95;;;1.73;;
31978;SDS011;18502;43.574;1.276;2023-12-22T02:42:39;18.55;;;2.47;;
31978;SDS011;18502;43.574;1.276;2023-12-22T02:45:06;16.48;;;2.00;;
31978;SDS011;18502;43.574;1.276;2023-12-22T02:47:41;6.60;;;2.15;;
31978;SDS011;18502;43.574;1.276;2023-12-22T02:50:07;8.65;;;1.80;;
31978;SDS011;18502;43.574;1.276;2023-12-22T02:52:34;11.50;;;1.80;;
31978;SDS011;18502;43.574;1.276;2023-12-22T02:55:00;6.72;;;1.83;;
31978;SDS011;18502;43.574;1.276;2023-12-22T02:57:26;10.23;;;1.48;;
31978;SDS011;18502;43.574;1.276;2023-12-22T02:59:52;10.57;;;1.95;;
31978;SDS011;18502;43.574;1.276;2023-12-22T03:02:18;3.35;;;0.98;;
31978;SDS011;18502;43.574;1.276;2023-12-22T03:04:43;7.20;;;1.33;;
31978;SDS011;18502;43.574;1.276;2023-12-22T03:07:11;2.72;;;0.43;;
31978;SDS011;18502;43.574;1.276;2023-12-22T03:09:37;5.88;;;0.77;;
31978;SDS011;18502;43.574;1.276;2023-12-22T03:12:02;4.90;;;0.90;;
31978;SDS011;18502;43.574;1.276;2023-12-22T03:14:29;9.93;;;1.60;;
31978;SDS011;18502;43.574;1.276;2023-12-22T03:16:55;5.25;;;0.98;;
31978;SDS011;18502;43.574;1.276;2023-12-22T03:19:21;8.35;;;1.20;;
31978;SDS011;18502;43.574;1.276;2023-12-22T03:21:48;9.25;;;2.20;;
31978;SDS011;18502;43.574;1.276;2023-12-22T03:24:13;6.57;;;1.13;;
31978;SDS011;18502;43.574;1.276;2023-12-22T03:26:39;7.20;;;1.27;;
31978;SDS011;18502;43.574;1.276;2023-12-22T03:29:05;7.38;;;1.55;;
31978;SDS011;18502;43.574;1.276;2023-12-22T03:31:30;5.28;;;0.90;;
31978;SDS011;18502;43.574;1.276;2023-12-22T03:33:56;4.72;;;1.10;;
31978;SDS011;18502;43.574;1.276;2023-12-22T03:36:21;8.02;;;1.35;;
31978;SDS011;18502;43.574;1.276;2023-12-22T03:38:47;9.15;;;1.50;;
31978;SDS011;18502;43.574;1.276;2023-12-22T03:41:13;6.55;;;1.17;;
31978;SDS011;18502;43.574;1.276;2023-12-22T03:43:38;10.00;;;1.75;;
31978;SDS011;18502;43.574;1.276;2023-12-22T03:46:04;7.65;;;0.95;;
31978;SDS011;18502;43.574;1.276;2023-12-22T03:48:30;8.18;;;1.25;;
31978;SDS011;18502;43.574;1.276;2023-12-22T03:50:55;6.72;;;1.02;;
31978;SDS011;18502;43.574;1.276;2023-12-22T03:53:21;5.78;;;0.98;;
31978;SDS011;18502;43.574;1.276;2023-12-22T03:55:46;8.13;;;0.88;;
31978;SDS011;18502;43.574;1.276;2023-12-22T03:58:12;7.00;;;0.95;;
31978;SDS011;18502;43.574;1.276;2023-12-22T04:00:38;4.80;;;0.70;;
31978;SDS011;18502;43.574;1.276;2023-12-22T04:03:04;3.45;;;0.70;;
31978;SDS011;18502;43.574;1.276;2023-12-22T04:05:30;3.10;;;0.60;;
31978;SDS011;18502;43.574;1.276;2023-12-22T04:07:55;6.50;;;0.75;;
31978;SDS011;18502;43.574;1.276;2023-12-22T04:10:21;4.15;;;0.60;;
31978;SDS011;18502;43.574;1.276;2023-12-22T04:12:46;2.05;;;0.52;;
31978;SDS011;18502;43.574;1.276;2023-12-22T04:15:12;3.15;;;0.50;;
31978;SDS011;18502;43.574;1.276;2023-12-22T04:17:38;2.72;;;0.40;;
31978;SDS011;18502;43.574;1.276;2023-12-22T04:20:04;1.00;;;0.28;;
31978;SDS011;18502;43.574;1.276;2023-12-22T04:22:31;1.13;;;0.30;;
31978;SDS011;18502;43.574;1.276;2023-12-22T04:24:58;3.45;;;0.32;;
31978;SDS011;18502;43.574;1.276;2023-12-22T04:27:23;1.35;;;0.50;;
31978;SDS011;18502;43.574;1.276;2023-12-22T04:29:49;3.95;;;0.63;;
31978;SDS011;18502;43.574;1.276;2023-12-22T04:32:15;3.15;;;0.43;;
31978;SDS011;18502;43.574;1.276;2023-12-22T04:34:41;6.55;;;0.43;;
31978;SDS011;18502;43.574;1.276;2023-12-22T04:37:06;5.15;;;0.30;;
31978;SDS011;18502;43.574;1.276;2023-12-22T04:39:32;2.03;;;0.10;;
31978;SDS011;18502;43.574;1.276;2023-12-22T04:41:57;0.95;;;0.32;;
31978;SDS011;18502;43.574;1.276;2023-12-22T04:44:23;0.50;;;0.20;;
31978;SDS011;18502;43.574;1.276;2023-12-22T04:46:49;1.58;;;0.32;;
31978;SDS011;18502;43.574;1.276;2023-12-22T04:49:15;1.58;;;0.20;;
31978;SDS011;18502;43.574;1.276;2023-12-22T04:51:40;0.85;;;0.10;;
31978;SDS011;18502;43.574;1.276;2023-12-22T04:54:06;1.08;;;0.10;;
31978;SDS011;18502;43.574;1.276;2023-12-22T04:56:31;2.45;;;0.45;;
31978;SDS011;18502;43.574;1.276;2023-12-22T04:58:57;0.40;;;0.10;;
31978;SDS011;18502;43.574;1.276;2023-12-22T05:01:23;0.77;;;0.00;;
31978;SDS011;18502;43.574;1.276;2023-12-22T05:03:48;0.73;;;0.20;;
31978;SDS011;18502;43.574;1.276;2023-12-22T05:06:14;0.38;;;0.08;;
31978;SDS011;18502;43.574;1.276;2023-12-22T05:08:40;0.15;;;0.00;;
31978;SDS011;18502;43.574;1.276;2023-12-22T05:11:05;0.25;;;0.20;;
31978;SDS011;18502;43.574;1.276;2023-12-22T05:13:31;1.85;;;0.40;;
31978;SDS011;18502;43.574;1.276;2023-12-22T05:15:57;3.20;;;0.30;;
31978;SDS011;18502;43.574;1.276;2023-12-22T05:18:23;0.32;;;0.13;;
31978;SDS011;18502;43.574;1.276;2023-12-22T05:20:49;3.03;;;0.25;;
31978;SDS011;18502;43.574;1.276;2023-12-22T05:23:15;0.55;;;0.30;;
31978;SDS011;18502;43.574;1.276;2023-12-22T05:25:41;4.47;;;0.43;;
31978;SDS011;18502;43.574;1.276;2023-12-22T05:28:07;1.25;;;0.40;;
31978;SDS011;18502;43.574;1.276;2023-12-22T05:30:32;1.48;;;0.40;;
31978;SDS011;18502;43.574;1.276;2023-12-22T05:32:58;3.03;;;0.17;;
31978;SDS011;18502;43.574;1.276;2023-12-22T05:35:23;2.40;;;0.30;;
31978;SDS011;18502;43.574;1.276;2023-12-22T05:37:49;1.08;;;0.32;;
31978;SDS011;18502;43.574;1.276;2023-12-22T05:40:15;0.32;;;0.10;;
31978;SDS011;18502;43.574;1.276;2023-12-22T05:42:41;1.65;;;0.22;;
31978;SDS011;18502;43.574;1.276;2023-12-22T05:45:07;1.88;;;0.50;;
31978;SDS011;18502;43.574;1.276;2023-12-22T05:47:33;0.40;;;0.13;;
31978;SDS011;18502;43.574;1.276;2023-12-22T05:49:59;4.65;;;0.90;;
31978;SDS011;18502;43.574;1.276;2023-12-22T05:52:24;2.70;;;0.20;;
31978;SDS011;18502;43.574;1.276;2023-12-22T05:54:50;0.38;;;0.10;;
31978;SDS011;18502;43.574;1.276;2023-12-22T05:57:16;1.52;;;0.20;;
31978;SDS011;18502;43.574;1.276;2023-12-22T05:59:42;0.15;;;0.05;;
31978;SDS011;18502;43.574;1.276;2023-12-22T06:02:07;3.85;;;0.17;;
31978;SDS011;18502;43.574;1.276;2023-12-22T06:04:33;4.78;;;0.30;;
31978;SDS011;18502;43.574;1.276;2023-12-22T06:06:59;2.85;;;0.20;;
31978;SDS011;18502;43.574;1.276;2023-12-22T06:09:25;0.85;;;0.20;;
31978;SDS011;18502;43.574;1.276;2023-12-22T06:11:51;1.20;;;0.28;;
31978;SDS011;18502;43.574;1.276;2023-12-22T06:14:17;1.33;;;0.20;;
31978;SDS011;18502;43.574;1.276;2023-12-22T06:16:42;1.58;;;0.90;;
31978;SDS011;18502;43.574;1.276;2023-12-22T06:19:08;1.38;;;0.52;;
31978;SDS011;18502;43.574;1.276;2023-12-22T06:21:37;1.77;;;0.52;;
31978;SDS011;18502;43.574;1.276;2023-12-22T06:24:03;1.27;;;0.80;;
31978;SDS011;18502;43.574;1.276;2023-12-22T06:26:29;1.45;;;0.40;;
31978;SDS011;18502;43.574;1.276;2023-12-22T06:28:55;1.38;;;0.60;;
31978;SDS011;18502;43.574;1.276;2023-12-22T06:31:21;3.15;;;1.00;;
31978;SDS011;18502;43.574;1.276;2023-12-22T06:33:48;5.90;;;1.33;;
31978;SDS011;18502;43.574;1.276;2023-12-22T06:36:21;0.70;;;0.30;;
31978;SDS011;18502;43.574;1.276;2023-12-22T06:38:48;5.03;;;0.70;;
31978;SDS011;18502;43.574;1.276;2023-12-22T06:41:19;1.02;;;0.30;;
31978;SDS011;18502;43.574;1.276;2023-12-22T06:43:51;0.30;;;0.30;;
31978;SDS011;18502;43.574;1.276;2023-12-22T06:46:21;1.98;;;0.60;;
31978;SDS011;18502;43.574;1.276;2023-12-22T06:48:47;1.75;;;0.43;;
31978;SDS011;18502;43.574;1.276;2023-12-22T06:51:23;0.75;;;0.52;;
31978;SDS011;18502;43.574;1.276;2023-12-22T06:53:51;0.73;;;0.20;;
31978;SDS011;18502;43.574;1.276;2023-12-22T06:58:47;0.68;;;0.15;;
31978;SDS011;18502;43.574;1.276;2023-12-22T07:03:51;0.15;;;0.10;;
31978;SDS011;18502;43.574;1.276;2023-12-22T07:06:17;0.25;;;0.10;;
31978;SDS011;18502;43.574;1.276;2023-12-22T07:08:43;1.02;;;0.17;;
31978;SDS011;18502;43.574;1.276;2023-12-22T07:11:09;1.05;;;0.28;;
31978;SDS011;18502;43.574;1.276;2023-12-22T07:13:36;1.17;;;0.20;;
31978;SDS011;18502;43.574;1.276;2023-12-22T07:16:02;0.70;;;0.20;;
31978;SDS011;18502;43.574;1.276;2023-12-22T07:18:29;0.13;;;0.10;;
31978;SDS011;18502;43.574;1.276;2023-12-22T07:20:56;2.08;;;0.20;;
31978;SDS011;18502;43.574;1.276;2023-12-22T07:23:22;0.47;;;0.30;;
31978;SDS011;18502;43.574;1.276;2023-12-22T07:25:48;1.00;;;0.30;;
31978;SDS011;18502;43.574;1.276;2023-12-22T07:28:14;0.70;;;0.20;;
31978;SDS011;18502;43.574;1.276;2023-12-22T07:30:40;1.55;;;0.22;;
31978;SDS011;18502;43.574;1.276;2023-12-22T07:33:06;0.55;;;0.20;;
31978;SDS011;18502;43.574;1.276;2023-12-22T07:35:32;0.75;;;0.20;;
31978;SDS011;18502;43.574;1.276;2023-12-22T07:37:57;0.90;;;0.32;;
31978;SDS011;18502;43.574;1.276;2023-12-22T07:40:23;3.05;;;0.30;;
31978;SDS011;18502;43.574;1.276;2023-12-22T07:42:49;1.05;;;0.50;;
31978;SDS011;18502;43.574;1.276;2023-12-22T07:45:15;1.60;;;0.30;;
31978;SDS011;18502;43.574;1.276;2023-12-22T07:47:41;0.10;;;0.10;;
31978;SDS011;18502;43.574;1.276;2023-12-22T07:50:07;1.08;;;0.15;;
31978;SDS011;18502;43.574;1.276;2023-12-22T07:52:33;1.58;;;0.30;;
31978;SDS011;18502;43.574;1.276;2023-12-22T07:55:07;1.42;;;0.43;;
31978;SDS011;18502;43.574;1.276;2023-12-22T07:57:36;2.85;;;0.35;;
31978;SDS011;18502;43.574;1.276;2023-12-22T08:00:02;1.48;;;0.50;;
31978;SDS011;18502;43.574;1.276;2023-12-22T08:02:29;0.85;;;0.32;;
31978;SDS011;18502;43.574;1.276;2023-12-22T08:04:55;1.83;;;0.60;;
31978;SDS011;18502;43.574;1.276;2023-12-22T08:07:21;0.75;;;0.30;;
31978;SDS011;18502;43.574;1.276;2023-12-22T08:09:46;1.48;;;0.30;;
31978;SDS011;18502;43.574;1.276;2023-12-22T08:12:12;0.95;;;0.40;;
31978;SDS011;18502;43.574;1.276;2023-12-22T08:14:37;0.35;;;0.20;;
31978;SDS011;18502;43.574;1.276;2023-12-22T08:17:03;2.72;;;0.30;;
31978;SDS011;18502;43.574;1.276;2023-12-22T08:19:29;1.10;;;0.10;;
31978;SDS011;18502;43.574;1.276;2023-12-22T08:21:54;4.82;;;0.60;;
31978;SDS011;18502;43.574;1.276;2023-12-22T08:24:21;3.35;;;0.20;;
31978;SDS011;18502;43.574;1.276;2023-12-22T08:26:46;1.23;;;0.30;;
31978;SDS011;18502;43.574;1.276;2023-12-22T08:29:13;1.20;;;0.20;;
31978;SDS011;18502;43.574;1.276;2023-12-22T08:31:38;0.10;;;0.10;;
31978;SDS011;18502;43.574;1.276;2023-12-22T08:34:04;1.02;;;0.20;;
31978;SDS011;18502;43.574;1.276;2023-12-22T08:36:30;1.02;;;0.30;;
31978;SDS011;18502;43.574;1.276;2023-12-22T08:38:57;7.10;;;0.43;;
31978;SDS011;18502;43.574;1.276;2023-12-22T08:41:22;2.20;;;0.25;;
31978;SDS011;18502;43.574;1.276;2023-12-22T08:43:48;0.70;;;0.20;;
31978;SDS011;18502;43.574;1.276;2023-12-22T08:46:14;0.82;;;0.20;;
31978;SDS011;18502;43.574;1.276;2023-12-22T08:48:40;0.60;;;0.30;;
31978;SDS011;18502;43.574;1.276;2023-12-22T08:51:05;2.58;;;0.35;;
31978;SDS011;18502;43.574;1.276;2023-12-22T08:53:32;1.95;;;0.30;;
31978;SDS011;18502;43.574;1.276;2023-12-22T08:56:01;0.52;;;0.20;;
31978;SDS011;18502;43.574;1.276;2023-12-22T08:58:27;0.50;;;0.20;;
31978;SDS011;18502;43.574;1.276;2023-12-22T09:00:53;1.08;;;0.22;;
31978;SDS011;18502;43.574;1.276;2023-12-22T09:03:18;3.10;;;0.85;;
31978;SDS011;18502;43.574;1.276;2023-12-22T09:05:44;0.30;;;0.10;;
31978;SDS011;18502;43.574;1.276;2023-12-22T09:08:09;0.30;;;0.30;;
31978;SDS011;18502;43.574;1.276;2023-12-22T09:10:35;2.45;;;0.20;;
31978;SDS011;18502;43.574;1.276;2023-12-22T09:13:01;0.10;;;0.10;;
31978;SDS011;18502;43.574;1.276;2023-12-22T09:15:27;0.32;;;0.17;;
31978;SDS011;18502;43.574;1.276;2023-12-22T09:17:52;1.10;;;0.10;;
31978;SDS011;18502;43.574;1.276;2023-12-22T09:20:22;0.77;;;0.40;;
31978;SDS011;18502;43.574;1.276;2023-12-22T09:22:47;1.00;;;0.30;;
31978;SDS011;18502;43.574;1.276;2023-12-22T09:25:13;0.17;;;0.10;;
31978;SDS011;18502;43.574;1.276;2023-12-22T09:27:39;1.98;;;0.25;;
31978;SDS011;18502;43.574;1.276;2023-12-22T09:30:04;1.85;;;0.20;;
31978;SDS011;18502;43.574;1.276;2023-12-22T09:32:34;0.33;;;0.30;;
31978;SDS011;18502;43.574;1.276;2023-12-22T09:35:00;1.00;;;0.30;;
31978;SDS011;18502;43.574;1.276;2023-12-22T09:37:26;0.50;;;0.20;;
31978;SDS011;18502;43.574;1.276;2023-12-22T09:39:51;0.32;;;0.20;;
31978;SDS011;18502;43.574;1.276;2023-12-22T09:42:17;1.00;;;0.50;;
31978;SDS011;18502;43.574;1.276;2023-12-22T09:44:45;1.08;;;0.30;;
31978;SDS011;18502;43.574;1.276;2023-12-22T09:47:14;1.42;;;0.43;;
31978;SDS011;18502;43.574;1.276;2023-12-22T09:49:42;1.15;;;0.52;;
31978;SDS011;18502;43.574;1.276;2023-12-22T09:52:09;0.60;;;0.30;;
31978;SDS011;18502;43.574;1.276;2023-12-22T09:54:36;0.35;;;0.22;;
31978;SDS011;18502;43.574;1.276;2023-12-22T09:57:03;2.13;;;0.20;;
31978;SDS011;18502;43.574;1.276;2023-12-22T09:59:31;2.47;;;0.10;;
31978;SDS011;18502;43.574;1.276;2023-12-22T10:01:58;0.30;;;0.10;;
31978;SDS011;18502;43.574;1.276;2023-12-22T10:04:27;0.80;;;0.20;;
31978;SDS011;18502;43.574;1.276;2023-12-22T10:06:53;0.45;;;0.30;;
31978;SDS011;18502;43.574;1.276;2023-12-22T10:09:25;0.47;;;0.40;;
31978;SDS011;18502;43.574;1.276;2023-12-22T10:11:52;0.80;;;0.20;;
31978;SDS011;18502;43.574;1.276;2023-12-22T10:14:21;0.43;;;0.30;;
31978;SDS011;18502;43.574;1.276;2023-12-22T10:16:50;1.23;;;0.50;;
31978;SDS011;18502;43.574;1.276;2023-12-22T10:19:17;1.35;;;0.70;;
31978;SDS011;18502;43.574;1.276;2023-12-22T10:21:42;2.83;;;0.50;;
31978;SDS011;18502;43.574;1.276;2023-12-22T10:24:18;1.33;;;0.30;;
31978;SDS011;18502;43.574;1.276;2023-12-22T10:27:12;0.40;;;0.35;;
31978;SDS011;18502;43.574;1.276;2023-12-22T10:29:39;1.63;;;0.70;;
31978;SDS011;18502;43.574;1.276;2023-12-22T10:32:05;0.63;;;0.40;;
31978;SDS011;18502;43.574;1.276;2023-12-22T10:34:32;2.03;;;0.50;;
31978;SDS011;18502;43.574;1.276;2023-12-22T10:36:58;0.50;;;0.30;;
31978;SDS011;18502;43.574;1.276;2023-12-22T10:39:28;0.20;;;0.20;;
31978;SDS011;18502;43.574;1.276;2023-12-22T10:41:54;2.03;;;0.30;;
31978;SDS011;18502;43.574;1.276;2023-12-22T10:44:24;0.57;;;0.10;;
31978;SDS011;18502;43.574;1.276;2023-12-22T10:46:54;0.75;;;0.10;;
31978;SDS011;18502;43.574;1.276;2023-12-22T10:49:23;0.07;;;0.07;;
31978;SDS011;18502;43.574;1.276;2023-12-22T10:51:49;0.20;;;0.20;;
31978;SDS011;18502;43.574;1.276;2023-12-22T10:54:16;0.43;;;0.20;;
31978;SDS011;18502;43.574;1.276;2023-12-22T10:56:43;0.20;;;0.20;;
31978;SDS011;18502;43.574;1.276;2023-12-22T10:59:09;0.17;;;0.10;;
31978;SDS011;18502;43.574;1.276;2023-12-22T11:01:38;0.82;;;0.13;;
31978;SDS011;18502;43.574;1.276;2023-12-22T11:04:07;0.22;;;0.20;;
31978;SDS011;18502;43.574;1.276;2023-12-22T11:06:35;0.75;;;0.20;;
31978;SDS011;18502;43.574;1.276;2023-12-22T11:09:03;0.55;;;0.25;;
31978;SDS011;18502;43.574;1.276;2023-12-22T11:11:36;0.20;;;0.20;;
31978;SDS011;18502;43.574;1.276;2023-12-22T11:14:03;0.55;;;0.20;;
31978;SDS011;18502;43.574;1.276;2023-12-22T11:16:30;0.90;;;0.20;;
31978;SDS011;18502;43.574;1.276;2023-12-22T11:19:01;1.58;;;0.50;;
31978;SDS011;18502;43.574;1.276;2023-12-22T11:21:27;1.77;;;0.77;;
31978;SDS011;18502;43.574;1.276;2023-12-22T11:23:54;1.25;;;0.30;;
31978;SDS011;18502;43.574;1.276;2023-12-22T11:26:21;0.35;;;0.30;;
31978;SDS011;18502;43.574;1.276;2023-12-22T11:28:48;1.45;;;0.20;;
31978;SDS011;18502;43.574;1.276;2023-12-22T11:31:16;0.55;;;0.20;;
31978;SDS011;18502;43.574;1.276;2023-12-22T11:33:46;1.60;;;0.28;;
31978;SDS011;18502;43.574;1.276;2023-12-22T11:36:13;2.42;;;0.25;;
31978;SDS011;18502;43.574;1.276;2023-12-22T11:38:40;0.32;;;0.10;;
31978;SDS011;18502;43.574;1.276;2023-12-22T11:41:08;3.47;;;1.02;;
31978;SDS011;18502;43.574;1.276;2023-12-22T11:43:37;0.68;;;0.30;;
31978;SDS011;18502;43.574;1.276;2023-12-22T11:46:04;1.63;;;0.45;;
31978;SDS011;18502;43.574;1.276;2023-12-22T11:48:29;2.17;;;0.30;;
31978;SDS011;18502;43.574;1.276;2023-12-22T11:50:55;1.33;;;0.68;;
31978;SDS011;18502;43.574;1.276;2023-12-22T11:53:25;3.92;;;0.50;;
31978;SDS011;18502;43.574;1.276;2023-12-22T11:55:58;1.50;;;0.60;;
31978;SDS011;18502;43.574;1.276;2023-12-22T11:58:43;1.63;;;0.40;;
31978;SDS011;18502;43.574;1.276;2023-12-22T12:01:16;3.38;;;0.55;;
31978;SDS011;18502;43.574;1.276;2023-12-22T12:03:53;1.73;;;0.60;;
31978;SDS011;18502;43.574;1.276;2023-12-22T12:08:50;1.20;;;0.40;;
31978;SDS011;18502;43.574;1.276;2023-12-22T12:11:18;5.63;;;0.55;;
31978;SDS011;18502;43.574;1.276;2023-12-22T12:13:45;0.57;;;0.47;;
31978;SDS011;18502;43.574;1.276;2023-12-22T12:16:12;0.52;;;0.30;;
31978;SDS011;18502;43.574;1.276;2023-12-22T12:18:38;0.85;;;0.30;;
31978;SDS011;18502;43.574;1.276;2023-12-22T12:21:07;3.55;;;0.60;;
31978;SDS011;18502;43.574;1.276;2023-12-22T12:23:35;3.00;;;0.30;;
31978;SDS011;18502;43.574;1.276;2023-12-22T12:26:01;0.82;;;0.40;;
31978;SDS011;18502;43.574;1.276;2023-12-22T12:28:30;0.55;;;0.20;;
31978;SDS011;18502;43.574;1.276;2023-12-22T12:30:57;0.50;;;0.20;;
31978;SDS011;18502;43.574;1.276;2023-12-22T12:33:27;2.72;;;1.00;;
31978;SDS011;18502;43.574;1.276;2023-12-22T12:35:54;0.55;;;0.55;;
31978;SDS011;18502;43.574;1.276;2023-12-22T12:38:23;1.17;;;0.52;;
31978;SDS011;18502;43.574;1.276;2023-12-22T12:41:04;1.33;;;0.70;;
31978;SDS011;18502;43.574;1.276;2023-12-22T12:43:30;1.27;;;0.70;;
31978;SDS011;18502;43.574;1.276;2023-12-22T12:46:04;2.00;;;0.60;;
31978;SDS011;18502;43.574;1.276;2023-12-22T12:48:30;0.40;;;0.40;;
31978;SDS011;18502;43.574;1.276;2023-12-22T12:51:00;4.43;;;0.90;;
31978;SDS011;18502;43.574;1.276;2023-12-22T12:53:29;1.40;;;0.50;;
31978;SDS011;18502;43.574;1.276;2023-12-22T12:55:57;0.90;;;0.40;;
31978;SDS011;18502;43.574;1.276;2023-12-22T12:58:30;1.80;;;0.43;;
31978;SDS011;18502;43.574;1.276;2023-12-22T13:01:06;0.88;;;0.32;;
31978;SDS011;18502;43.574;1.276;2023-12-22T13:03:33;0.70;;;0.20;;
31978;SDS011;18502;43.574;1.276;2023-12-22T13:06:08;1.33;;;0.38;;
31978;SDS011;18502;43.574;1.276;2023-12-22T13:08:34;1.95;;;0.70;;
31978;SDS011;18502;43.574;1.276;2023-12-22T13:11:00;0.55;;;0.10;;
31978;SDS011;18502;43.574;1.276;2023-12-22T13:13:27;1.77;;;0.40;;
31978;SDS011;18502;43.574;1.276;2023-12-22T13:15:52;0.77;;;0.30;;
31978;SDS011;18502;43.574;1.276;2023-12-22T13:18:18;1.98;;;0.30;;
31978;SDS011;18502;43.574;1.276;2023-12-22T13:20:44;1.38;;;0.30;;
31978;SDS011;18502;43.574;1.276;2023-12-22T13:23:09;1.55;;;0.15;;
31978;SDS011;18502;43.574;1.276;2023-12-22T13:25:39;0.73;;;0.30;;
31978;SDS011;18502;43.574;1.276;2023-12-22T13:28:05;0.55;;;0.28;;
31978;SDS011;18502;43.574;1.276;2023-12-22T13:30:37;0.40;;;0.20;;
31978;SDS011;18502;43.574;1.276;2023-12-22T13:33:06;2.30;;;0.20;;
31978;SDS011;18502;43.574;1.276;2023-12-22T13:35:32;1.58;;;0.20;;
31978;SDS011;18502;43.574;1.276;2023-12-22T13:38:01;0.75;;;0.47;;
31978;SDS011;18502;43.574;1.276;2023-12-22T13:40:30;1.43;;;0.50;;
31978;SDS011;18502;43.574;1.276;2023-12-22T13:42:56;1.17;;;0.50;;
31978;SDS011;18502;43.574;1.276;2023-12-22T13:45:22;1.55;;;1.05;;
31978;SDS011;18502;43.574;1.276;2023-12-22T13:47:51;0.88;;;0.30;;
31978;SDS011;18502;43.574;1.276;2023-12-22T13:50:17;3.05;;;1.27;;
31978;SDS011;18502;43.574;1.276;2023-12-22T13:52:44;5.70;;;0.63;;
31978;SDS011;18502;43.574;1.276;2023-12-22T13:55:11;0.90;;;0.40;;
31978;SDS011;18502;43.574;1.276;2023-12-22T13:57:37;1.90;;;0.45;;
31978;SDS011;18502;43.574;1.276;2023-12-22T14:02:48;5.97;;;1.60;;
31978;SDS011;18502;43.574;1.276;2023-12-22T14:05:14;1.92;;;1.17;;
31978;SDS011;18502;43.574;1.276;2023-12-22T14:07:43;3.72;;;1.13;;
31978;SDS011;18502;43.574;1.276;2023-12-22T14:10:09;4.32;;;0.68;;
31978;SDS011;18502;43.574;1.276;2023-12-22T14:12:39;1.60;;;0.47;;
31978;SDS011;18502;43.574;1.276;2023-12-22T14:15:09;2.25;;;1.35;;
31978;SDS011;18502;43.574;1.276;2023-12-22T14:17:35;2.80;;;0.40;;
31978;SDS011;18502;43.574;1.276;2023-12-22T14:20:01;1.58;;;0.93;;
31978;SDS011;18502;43.574;1.276;2023-12-22T14:22:29;5.30;;;0.70;;
31978;SDS011;18502;43.574;1.276;2023-12-22T14:24:55;5.53;;;1.30;;
31978;SDS011;18502;43.574;1.276;2023-12-22T14:27:23;2.03;;;0.40;;
31978;SDS011;18502;43.574;1.276;2023-12-22T14:29:48;2.75;;;0.75;;
31978;SDS011;18502;43.574;1.276;2023-12-22T14:32:14;2.80;;;0.30;;
31978;SDS011;18502;43.574;1.276;2023-12-22T14:34:40;1.10;;;0.30;;
31978;SDS011;18502;43.574;1.276;2023-12-22T14:37:06;1.60;;;0.40;;
31978;SDS011;18502;43.574;1.276;2023-12-22T14:39:31;1.08;;;0.30;;
31978;SDS011;18502;43.574;1.276;2023-12-22T14:41:58;1.35;;;0.20;;
31978;SDS011;18502;43.574;1.276;2023-12-22T14:44:24;1.13;;;0.57;;
31978;SDS011;18502;43.574;1.276;2023-12-22T14:46:50;1.70;;;0.30;;
31978;SDS011;18502;43.574;1.276;2023-12-22T14:49:16;0.43;;;0.30;;
31978;SDS011;18502;43.574;1.276;2023-12-22T14:51:43;1.42;;;0.60;;
31978;SDS011;18502;43.574;1.276;2023-12-22T14:54:08;2.60;;;0.40;;